Terminal Aerodrome Forecast
Issued by NWS

Current Version | Previous Version | Text Only | Print | Product List | Glossary On
Versions: 1 2 3 4 5 6 7 8 9 10 11 12 13 14 15 16 17 18 19 20 21 22 23 24 25 26 27 28 29 30 31 32 33 34 35 36 37 38 39 40 41 42 43 44
000
FTAK31 PANC 231136
TAFASN
TAF
PASN 231136Z 2312/2412 12025G35KT 2SM -SN BR BKN007 OVC010
     FM231800 23015G25KT 3SM -SN SCT007 OVC010
     FM232000 25025G35KT 5SM -SHSN SCT015 BKN035=

USA.gov is the U.S. government's official web portal to all federal, state and local government web resources and services.